createdAt,value
2019-02-19T00:01:02.184Z,37.00
2019-02-19T00:03:38.017Z,37.00
2019-02-19T00:06:14.496Z,37.00
2019-02-19T00:08:49.626Z,37.10
2019-02-19T00:11:24.745Z,37.30
2019-02-19T00:13:59.114Z,37.50
2019-02-19T00:16:37.229Z,37.70
2019-02-19T00:19:14.203Z,37.60
2019-02-19T00:21:49.000Z,37.60
2019-02-19T00:24:24.869Z,37.60
2019-02-19T00:27:01.641Z,37.60
2019-02-19T00:29:36.691Z,37.60
2019-02-19T00:32:11.763Z,37.60
2019-02-19T00:34:47.137Z,37.50
2019-02-19T00:37:22.967Z,37.40
2019-02-19T00:39:59.506Z,37.30
2019-02-19T00:42:35.041Z,37.20
2019-02-19T00:45:16.686Z,37.20
2019-02-19T00:47:48.032Z,37.30
2019-02-19T00:50:22.989Z,37.40
2019-02-19T00:52:58.740Z,37.20
2019-02-19T00:55:34.490Z,37.00
2019-02-19T00:58:10.167Z,37.00
2019-02-19T01:00:45.279Z,37.10
2019-02-19T01:03:20.318Z,37.30
2019-02-19T01:05:55.482Z,37.30
2019-02-19T01:08:31.314Z,37.60
2019-02-19T01:11:05.712Z,37.40
2019-02-19T01:13:41.888Z,37.30
2019-02-19T01:16:16.828Z,37.40
2019-02-19T01:18:53.402Z,37.40
2019-02-19T01:21:28.327Z,37.50
2019-02-19T01:24:02.805Z,37.50
2019-02-19T01:26:38.155Z,37.30
2019-02-19T01:29:13.820Z,37.40
2019-02-19T01:31:49.859Z,37.00
2019-02-19T01:34:24.843Z,36.80
2019-02-19T01:37:00.589Z,36.90
2019-02-19T01:39:36.857Z,37.20
2019-02-19T01:42:11.990Z,37.20
2019-02-19T01:44:48.026Z,37.30
2019-02-19T01:47:24.982Z,37.80
2019-02-19T01:50:02.559Z,38.10
2019-02-19T01:52:37.683Z,38.20
2019-02-19T01:55:13.612Z,38.40
2019-02-19T01:57:49.473Z,38.40
2019-02-19T02:00:25.651Z,38.30
2019-02-19T02:03:00.714Z,38.20
2019-02-19T02:05:36.322Z,38.30
2019-02-19T02:08:13.775Z,38.20
2019-02-19T02:10:48.750Z,38.70
2019-02-19T02:13:23.882Z,38.10
2019-02-19T02:15:59.866Z,38.20
2019-02-19T02:18:34.895Z,38.30
2019-02-19T02:21:10.745Z,38.30
2019-02-19T02:23:49.062Z,38.50
2019-02-19T02:26:22.040Z,38.40
2019-02-19T02:28:58.664Z,38.30
2019-02-19T02:31:32.810Z,38.40
2019-02-19T02:34:05.840Z,38.10
2019-02-19T02:36:39.341Z,38.20
2019-02-19T02:39:12.657Z,38.40
2019-02-19T02:41:46.445Z,38.30
2019-02-19T02:44:20.304Z,37.90
2019-02-19T02:46:54.138Z,37.80
2019-02-19T02:49:28.441Z,38.00
2019-02-19T02:52:05.214Z,38.10
2019-02-19T02:54:40.779Z,38.30
2019-02-19T02:57:17.315Z,38.70
2019-02-19T02:59:53.224Z,38.50
2019-02-19T03:02:28.925Z,38.40
2019-02-19T03:05:03.247Z,39.20
2019-02-19T03:07:42.372Z,38.40
2019-02-19T03:10:19.319Z,38.30
2019-02-19T03:12:56.183Z,38.10
2019-02-19T03:15:32.376Z,38.10
2019-02-19T03:18:09.168Z,38.00
2019-02-19T03:20:47.002Z,37.90
2019-02-19T03:23:22.990Z,37.80
2019-02-19T03:25:59.170Z,37.80
2019-02-19T03:28:34.378Z,37.80
2019-02-19T03:31:09.384Z,37.80
2019-02-19T03:33:46.050Z,37.70
2019-02-19T03:36:21.213Z,37.60
2019-02-19T03:38:58.620Z,38.30
2019-02-19T03:41:33.638Z,37.30
2019-02-19T03:44:09.179Z,37.00
2019-02-19T03:46:45.530Z,37.00
2019-02-19T03:49:21.489Z,37.10
2019-02-19T03:51:58.755Z,37.10
2019-02-19T03:54:33.750Z,37.00
2019-02-19T03:57:09.270Z,37.00
2019-02-19T03:59:44.784Z,37.20
2019-02-19T04:02:19.232Z,37.70
2019-02-19T04:04:54.988Z,38.10
2019-02-19T04:07:30.697Z,38.30
2019-02-19T04:10:07.401Z,38.30
2019-02-19T04:12:44.610Z,38.30
2019-02-19T04:15:19.357Z,38.10
2019-02-19T04:17:54.238Z,37.80
2019-02-19T04:20:28.758Z,38.10
2019-02-19T04:23:03.804Z,38.30
2019-02-19T04:25:38.088Z,38.20
2019-02-19T04:28:12.483Z,38.20
2019-02-19T04:30:48.348Z,38.30
2019-02-19T04:33:23.752Z,38.30
2019-02-19T04:35:58.199Z,38.40
2019-02-19T04:38:36.070Z,38.40
2019-02-19T04:41:12.846Z,38.30
2019-02-19T04:43:49.654Z,38.40
2019-02-19T04:46:31.491Z,38.40
2019-02-19T04:49:00.855Z,38.70
2019-02-19T04:51:35.838Z,38.90
2019-02-19T04:54:12.520Z,39.30
2019-02-19T04:56:47.267Z,39.60
2019-02-19T04:59:23.940Z,39.50
2019-02-19T05:02:00.115Z,39.20
2019-02-19T05:04:36.636Z,39.10
2019-02-19T05:07:12.724Z,39.10
2019-02-19T05:09:49.506Z,39.10
2019-02-19T05:12:24.736Z,39.20
2019-02-19T05:15:01.828Z,39.10
2019-02-19T05:17:38.783Z,39.10
2019-02-19T05:20:15.626Z,39.30
2019-02-19T05:22:50.811Z,39.60
2019-02-19T05:25:27.762Z,39.80
2019-02-19T05:28:05.104Z,39.90
2019-02-19T05:30:43.041Z,40.00
2019-02-19T05:33:19.697Z,39.90
2019-02-19T05:35:56.805Z,40.00
2019-02-19T05:38:32.395Z,40.10
2019-02-19T05:41:07.516Z,39.80
2019-02-19T05:43:42.488Z,39.30
2019-02-19T05:46:18.939Z,39.40
2019-02-19T05:48:54.607Z,39.00
2019-02-19T05:51:29.705Z,38.90
2019-02-19T05:54:05.718Z,38.70
2019-02-19T05:56:41.731Z,38.80
2019-02-19T05:59:23.340Z,39.00
2019-02-19T06:02:09.125Z,39.10
2019-02-19T06:04:56.897Z,39.10
2019-02-19T06:07:40.579Z,39.00
2019-02-19T06:10:20.739Z,39.00
2019-02-19T06:13:09.256Z,39.00
2019-02-19T06:15:41.789Z,38.90
2019-02-19T06:18:15.944Z,38.80
2019-02-19T06:20:48.943Z,38.50
2019-02-19T06:23:24.270Z,38.50
2019-02-19T06:25:59.691Z,38.50
2019-02-19T06:28:34.036Z,38.40
2019-02-19T06:31:10.119Z,38.30
2019-02-19T06:33:45.072Z,38.20
2019-02-19T06:36:21.983Z,39.00
2019-02-19T06:38:58.336Z,38.20
2019-02-19T06:41:34.277Z,38.20
2019-02-19T06:44:09.301Z,38.30
2019-02-19T06:46:47.533Z,38.30
2019-02-19T06:49:23.130Z,38.10
2019-02-19T06:51:59.326Z,38.30
2019-02-19T06:54:33.858Z,38.50
2019-02-19T06:57:08.396Z,38.70
2019-02-19T06:59:43.335Z,38.70
2019-02-19T07:02:30.937Z,38.80
2019-02-19T07:05:08.727Z,39.00
2019-02-19T07:07:46.016Z,39.10
2019-02-19T07:10:19.399Z,39.10
2019-02-19T07:12:53.759Z,38.80
2019-02-19T07:15:27.503Z,38.50
2019-02-19T07:18:02.799Z,38.30
2019-02-19T07:20:37.148Z,38.00
2019-02-19T07:23:11.667Z,37.60
2019-02-19T07:25:46.935Z,37.50
2019-02-19T07:28:22.315Z,37.40
2019-02-19T07:30:57.343Z,37.10
2019-02-19T07:33:31.683Z,37.00
2019-02-19T07:36:06.689Z,37.10
2019-02-19T07:38:40.890Z,37.30
2019-02-19T07:41:15.637Z,37.40
2019-02-19T07:43:49.812Z,37.80
2019-02-19T07:46:25.467Z,37.80
2019-02-19T07:48:58.704Z,37.90
2019-02-19T07:51:33.355Z,38.40
2019-02-19T07:54:08.271Z,38.90
2019-02-19T07:56:43.559Z,39.20
2019-02-19T07:59:16.373Z,38.80
2019-02-19T08:01:50.209Z,38.80
2019-02-19T08:04:25.063Z,38.70
2019-02-19T08:06:59.410Z,38.70
2019-02-19T08:09:34.056Z,38.70
2019-02-19T08:12:08.361Z,39.10
2019-02-19T08:14:41.261Z,39.10
2019-02-19T08:17:14.503Z,38.80
2019-02-19T08:19:48.829Z,39.10
2019-02-19T08:22:23.609Z,39.00
2019-02-19T08:24:58.259Z,38.90
2019-02-19T08:27:31.139Z,38.90
2019-02-19T08:30:05.649Z,38.30
2019-02-19T08:32:40.060Z,37.70
2019-02-19T08:35:13.483Z,36.90
2019-02-19T08:37:46.827Z,36.80
2019-02-19T08:40:21.981Z,36.70
2019-02-19T08:42:55.766Z,36.90
2019-02-19T08:45:28.564Z,36.80
2019-02-19T08:48:02.463Z,36.70
2019-02-19T08:50:36.706Z,37.00
2019-02-19T08:53:10.345Z,37.80
2019-02-19T08:55:46.396Z,37.70
2019-02-19T08:58:19.352Z,37.60
2019-02-19T09:00:52.275Z,37.40
2019-02-19T09:03:26.895Z,37.60
2019-02-19T09:05:59.255Z,37.20
2019-02-19T09:08:32.163Z,37.70
2019-02-19T09:11:05.148Z,37.80
2019-02-19T09:13:38.401Z,37.90
2019-02-19T09:16:11.518Z,38.10
2019-02-19T09:18:44.758Z,37.90
2019-02-19T09:21:16.797Z,37.50
2019-02-19T09:23:49.214Z,36.90
2019-02-19T09:26:23.371Z,36.90
2019-02-19T09:28:56.646Z,36.70
2019-02-19T09:31:29.159Z,36.70
2019-02-19T09:34:02.888Z,36.80
2019-02-19T09:36:36.360Z,36.50
2019-02-19T09:39:10.385Z,36.40
2019-02-19T09:41:44.232Z,36.20
2019-02-19T09:44:18.412Z,36.80
2019-02-19T09:46:52.659Z,35.80
2019-02-19T09:49:26.878Z,36.10
2019-02-19T09:51:58.850Z,36.10
2019-02-19T09:54:31.400Z,36.40
2019-02-19T09:57:04.712Z,36.60
2019-02-19T09:59:39.126Z,36.20
2019-02-19T10:02:12.630Z,36.30
2019-02-19T10:04:45.109Z,36.10
2019-02-19T10:07:19.393Z,36.10
2019-02-19T10:09:53.261Z,35.70
2019-02-19T10:12:27.926Z,35.20
2019-02-19T10:15:00.847Z,35.10
2019-02-19T10:17:34.147Z,35.20
2019-02-19T10:20:07.704Z,34.90
2019-02-19T10:22:41.258Z,34.70
2019-02-19T10:25:14.202Z,35.00
2019-02-19T10:27:47.068Z,34.70
2019-02-19T10:30:19.563Z,35.00
2019-02-19T10:32:52.535Z,35.10
2019-02-19T10:35:24.688Z,35.00
2019-02-19T10:37:58.149Z,35.00
2019-02-19T10:40:30.619Z,34.70
2019-02-19T10:43:02.633Z,33.60
2019-02-19T10:45:36.204Z,34.30
2019-02-19T10:48:09.595Z,34.40
2019-02-19T10:50:43.016Z,33.80
2019-02-19T10:53:15.898Z,33.30
2019-02-19T10:55:48.953Z,32.70
2019-02-19T10:58:23.290Z,32.70
2019-02-19T11:00:57.424Z,32.60
2019-02-19T11:03:30.404Z,32.50
2019-02-19T11:06:03.289Z,33.10
2019-02-19T11:08:36.099Z,33.00
2019-02-19T11:11:09.352Z,33.10
2019-02-19T11:13:43.318Z,33.10
2019-02-19T11:16:16.261Z,32.60
2019-02-19T11:18:49.224Z,32.70
2019-02-19T11:21:22.714Z,32.50
2019-02-19T11:23:55.117Z,33.30
2019-02-19T11:26:28.077Z,32.80
2019-02-19T11:29:02.549Z,32.50
2019-02-19T11:31:36.259Z,32.30
2019-02-19T11:34:09.138Z,31.20
2019-02-19T11:36:42.441Z,30.50
2019-02-19T11:39:16.480Z,30.30
2019-02-19T11:41:49.861Z,30.50
2019-02-19T11:44:22.918Z,30.60
2019-02-19T11:46:56.933Z,30.00
2019-02-19T11:49:30.354Z,30.20
2019-02-19T11:52:03.306Z,30.10
2019-02-19T11:54:37.078Z,29.70
2019-02-19T11:57:10.444Z,29.70
2019-02-19T11:59:44.152Z,29.00
2019-02-19T12:02:18.452Z,28.00
2019-02-19T12:04:52.699Z,27.10
2019-02-19T12:07:26.985Z,27.10
2019-02-19T12:10:01.890Z,27.20
2019-02-19T12:12:35.640Z,27.30
2019-02-19T12:15:08.634Z,26.80
2019-02-19T12:17:42.054Z,25.80
2019-02-19T12:20:14.562Z,26.00
2019-02-19T12:22:48.011Z,26.10
2019-02-19T12:25:21.196Z,26.60
2019-02-19T12:27:57.434Z,27.20
2019-02-19T12:30:33.174Z,27.70
2019-02-19T12:33:10.465Z,28.60
2019-02-19T12:35:45.043Z,28.40
2019-02-19T12:38:20.665Z,28.30
2019-02-19T12:40:57.092Z,27.90
2019-02-19T12:43:33.989Z,28.00
2019-02-19T12:46:09.159Z,27.50
2019-02-19T12:48:44.992Z,27.90
2019-02-19T12:51:26.462Z,28.00
2019-02-19T12:53:59.770Z,27.80
2019-02-19T12:56:36.520Z,28.30
2019-02-19T12:59:14.041Z,28.10
2019-02-19T13:01:50.251Z,27.30
2019-02-19T13:04:25.206Z,28.10
2019-02-19T13:07:01.513Z,28.80
2019-02-19T13:09:39.470Z,29.20
2019-02-19T13:12:26.046Z,29.30
2019-02-19T13:15:00.414Z,29.10
2019-02-19T13:17:36.537Z,29.00
2019-02-19T13:20:14.077Z,28.60
2019-02-19T13:22:49.934Z,28.40
2019-02-19T13:25:25.438Z,28.30
2019-02-19T13:28:00.568Z,27.90
2019-02-19T13:30:35.469Z,27.30
2019-02-19T13:33:10.540Z,27.30
2019-02-19T13:35:46.745Z,27.40
2019-02-19T13:38:21.331Z,27.30
2019-02-19T13:40:56.434Z,27.40
2019-02-19T13:43:30.024Z,27.30
2019-02-19T13:46:03.349Z,27.40
2019-02-19T13:48:37.427Z,26.60
2019-02-19T13:51:10.815Z,26.90
2019-02-19T13:53:47.856Z,26.40
2019-02-19T13:56:21.184Z,26.40
2019-02-19T13:58:54.290Z,26.20
2019-02-19T14:02:11.080Z,26.30
2019-02-19T14:05:05.843Z,26.50
2019-02-19T14:12:11.846Z,25.30
2019-02-19T14:15:32.484Z,25.10
2019-02-19T14:18:22.637Z,25.20
2019-02-19T14:21:42.563Z,26.10
2019-02-19T14:25:08.154Z,27.40
2019-02-19T14:28:44.579Z,27.70
2019-02-19T14:31:46.833Z,27.80
2019-02-19T14:35:11.072Z,28.40
2019-02-19T14:42:55.450Z,29.30
2019-02-19T14:50:57.243Z,29.70
2019-02-19T14:59:00.985Z,27.40
2019-02-19T15:10:58.065Z,26.60
2019-02-19T15:14:49.382Z,27.50
2019-02-19T15:19:00.156Z,26.90
2019-02-19T15:35:55.023Z,27.10
2019-02-19T16:03:24.708Z,33.00
2019-02-19T16:06:52.465Z,32.90
2019-02-19T16:09:44.517Z,33.30
2019-02-19T16:12:39.954Z,33.20
2019-02-19T16:15:47.811Z,32.80
2019-02-19T16:18:43.065Z,32.20
2019-02-19T16:21:30.309Z,32.20
2019-02-19T16:24:32.576Z,32.40
2019-02-19T16:27:32.975Z,33.00
2019-02-19T16:30:37.209Z,33.50
2019-02-19T16:33:33.549Z,34.00
2019-02-19T16:36:15.025Z,34.60
2019-02-19T16:39:08.092Z,35.10
2019-02-19T16:42:00.715Z,35.10
2019-02-19T16:45:01.421Z,35.50
2019-02-19T16:47:43.188Z,35.90
2019-02-19T16:50:54.307Z,36.20
2019-02-19T16:53:46.696Z,36.90
2019-02-19T16:56:41.367Z,37.10
2019-02-19T16:59:33.994Z,36.70
2019-02-19T17:02:16.301Z,36.70
2019-02-19T17:05:15.369Z,36.60
2019-02-19T17:08:05.747Z,36.60
2019-02-19T17:10:59.267Z,37.00
2019-02-19T17:13:58.142Z,37.70
2019-02-19T17:16:53.195Z,37.50
2019-02-19T17:19:48.626Z,37.90
2019-02-19T17:22:41.167Z,37.90
2019-02-19T17:25:32.787Z,37.60
2019-02-19T17:28:18.085Z,37.70
2019-02-19T17:31:23.321Z,37.80
2019-02-19T17:34:17.403Z,37.90
2019-02-19T17:37:22.543Z,37.40
2019-02-19T17:40:25.601Z,37.40
2019-02-19T17:43:16.648Z,37.00
2019-02-19T17:46:12.094Z,37.60
2019-02-19T17:49:07.582Z,37.70
2019-02-19T17:51:54.179Z,38.10
2019-02-19T17:54:41.529Z,37.30
2019-02-19T17:57:55.667Z,37.10
2019-02-19T18:01:08.410Z,36.10
2019-02-19T18:03:59.138Z,35.60
2019-02-19T18:06:55.190Z,35.20
2019-02-19T18:10:01.770Z,35.90
2019-02-19T18:12:56.271Z,36.90
2019-02-19T18:15:57.696Z,38.90
2019-02-19T18:18:51.037Z,39.90
2019-02-19T18:21:25.896Z,41.40
2019-02-19T18:23:59.428Z,42.10
2019-02-19T18:26:32.682Z,42.20
2019-02-19T18:29:06.169Z,43.00
2019-02-19T18:31:39.723Z,43.60
2019-02-19T18:34:13.215Z,44.60
2019-02-19T18:36:46.270Z,44.00
2019-02-19T18:39:19.399Z,44.30
2019-02-19T18:41:57.634Z,45.80
2019-02-19T18:44:30.650Z,47.30
2019-02-19T18:47:12.824Z,48.10
2019-02-19T18:49:48.961Z,48.70
2019-02-19T18:52:24.613Z,48.90
2019-02-19T18:54:59.439Z,48.70
2019-02-19T18:57:32.988Z,49.80
2019-02-19T19:00:12.475Z,50.40
2019-02-19T19:02:48.773Z,50.70
2019-02-19T19:05:25.218Z,50.60
2019-02-19T19:08:00.082Z,50.50
2019-02-19T19:10:35.189Z,50.60
2019-02-19T19:13:10.999Z,50.80
2019-02-19T19:15:45.623Z,50.50
2019-02-19T19:18:24.788Z,50.20
2019-02-19T19:21:11.410Z,50.10
2019-02-19T19:23:47.257Z,50.00
2019-02-19T19:26:23.451Z,49.00
2019-02-19T19:28:59.190Z,50.40
2019-02-19T19:31:45.070Z,50.70
2019-02-19T19:34:19.741Z,50.90
2019-02-19T19:37:00.130Z,50.10
2019-02-19T19:39:37.023Z,48.60
2019-02-19T19:42:11.865Z,47.90
2019-02-19T19:45:01.126Z,47.30
2019-02-19T19:47:40.492Z,47.30
2019-02-19T19:50:24.077Z,47.40
2019-02-19T19:53:03.835Z,47.70
2019-02-19T19:55:37.971Z,47.20
2019-02-19T19:58:13.909Z,47.10
2019-02-19T20:00:48.936Z,46.50
2019-02-19T20:03:22.314Z,46.40
2019-02-19T20:05:57.230Z,46.20
2019-02-19T20:08:31.901Z,45.90
2019-02-19T20:11:10.709Z,45.90
2019-02-19T20:13:47.469Z,46.70
2019-02-19T20:16:22.379Z,47.20
2019-02-19T20:18:56.627Z,47.00
2019-02-19T20:21:32.901Z,47.80
2019-02-19T20:24:07.629Z,49.80
2019-02-19T20:26:42.482Z,51.30
2019-02-19T20:29:18.589Z,52.80
2019-02-19T20:31:54.922Z,53.50
2019-02-19T20:34:32.600Z,54.80
2019-02-19T20:37:07.529Z,54.40
2019-02-19T20:39:56.685Z,54.80
2019-02-19T20:42:30.779Z,54.30
2019-02-19T20:45:05.122Z,53.60
2019-02-19T20:47:39.628Z,53.10
2019-02-19T20:50:16.089Z,51.90
2019-02-19T20:52:50.559Z,52.40
2019-02-19T20:55:24.258Z,51.40
2019-02-19T20:57:59.875Z,51.00
2019-02-19T21:00:33.741Z,50.80
2019-02-19T21:03:10.565Z,50.40
2019-02-19T21:05:50.343Z,49.50
2019-02-19T21:08:24.706Z,48.80
2019-02-19T21:11:06.545Z,49.10
2019-02-19T21:13:40.432Z,49.50
2019-02-19T21:16:14.719Z,48.70
2019-02-19T21:18:48.982Z,48.40
2019-02-19T21:21:24.004Z,48.30
2019-02-19T21:23:58.043Z,47.90
2019-02-19T21:26:32.106Z,48.00
2019-02-19T21:29:07.963Z,47.80
2019-02-19T21:31:42.395Z,47.50
2019-02-19T21:34:16.539Z,47.20
2019-02-19T21:36:50.708Z,47.40
2019-02-19T21:39:25.078Z,47.40
2019-02-19T21:42:00.019Z,46.80
2019-02-19T21:44:33.980Z,46.50
2019-02-19T21:47:08.884Z,45.80
2019-02-19T21:49:46.073Z,45.60
2019-02-19T21:52:20.969Z,46.00
2019-02-19T21:54:56.180Z,45.90
2019-02-19T21:57:31.017Z,45.80
2019-02-19T22:00:06.165Z,46.30
2019-02-19T22:02:39.994Z,47.50
2019-02-19T22:05:14.516Z,48.50
2019-02-19T22:07:48.543Z,48.80
2019-02-19T22:10:23.221Z,49.10
2019-02-19T22:12:56.381Z,49.40
2019-02-19T22:15:33.621Z,50.20
2019-02-19T22:18:09.987Z,49.60
2019-02-19T22:21:01.565Z,49.00
2019-02-19T22:23:35.819Z,48.90
2019-02-19T22:26:10.973Z,49.10
2019-02-19T22:28:44.857Z,49.10
2019-02-19T22:31:19.908Z,49.20
2019-02-19T22:33:56.075Z,49.80
2019-02-19T22:36:31.130Z,50.20
2019-02-19T22:39:07.491Z,50.50
2019-02-19T22:41:42.503Z,50.20
2019-02-19T22:44:17.707Z,50.50
2019-02-19T22:46:52.077Z,51.00
2019-02-19T22:49:27.108Z,50.70
2019-02-19T22:52:00.392Z,50.40
2019-02-19T22:54:39.279Z,50.60
2019-02-19T22:57:13.166Z,50.40
2019-02-19T22:59:48.076Z,50.60
2019-02-19T23:02:24.469Z,50.50
2019-02-19T23:04:58.324Z,51.10
2019-02-19T23:07:33.271Z,51.10
2019-02-19T23:10:08.306Z,51.30
2019-02-19T23:12:43.244Z,51.50
2019-02-19T23:15:17.492Z,51.20
2019-02-19T23:17:52.498Z,50.80
2019-02-19T23:20:27.504Z,50.80
2019-02-19T23:23:02.540Z,51.10
2019-02-19T23:25:37.617Z,51.30
2019-02-19T23:28:12.982Z,50.90
2019-02-19T23:30:47.341Z,50.90
2019-02-19T23:33:21.724Z,51.20
2019-02-19T23:36:06.634Z,51.50
2019-02-19T23:38:41.592Z,51.60
2019-02-19T23:41:16.023Z,51.70
2019-02-19T23:43:52.279Z,50.80
2019-02-19T23:46:27.517Z,49.80
2019-02-19T23:49:01.900Z,49.00
2019-02-19T23:51:37.267Z,49.40
2019-02-19T23:54:13.225Z,48.10
2019-02-19T23:56:48.849Z,48.70
2019-02-19T23:59:24.262Z,48.80
